createdAt,value
2018-09-04T00:00:43.508Z,20.30
2018-09-04T00:03:11.230Z,21.83
2018-09-04T00:05:39.021Z,20.03
2018-09-04T00:08:06.721Z,18.80
2018-09-04T00:10:34.444Z,18.73
2018-09-04T00:13:02.374Z,23.57
2018-09-04T00:15:30.137Z,20.37
2018-09-04T00:17:57.909Z,18.17
2018-09-04T00:20:25.672Z,20.23
2018-09-04T00:22:53.436Z,17.47
2018-09-04T00:25:21.225Z,17.23
2018-09-04T00:27:49.050Z,19.90
2018-09-04T00:30:16.847Z,22.17
2018-09-04T00:32:44.586Z,19.57
2018-09-04T00:35:12.429Z,20.73
2018-09-04T00:37:40.204Z,20.67
2018-09-04T00:40:08.141Z,21.47
2018-09-04T00:42:35.903Z,18.37
2018-09-04T00:45:03.843Z,21.63
2018-09-04T00:47:31.615Z,18.83
2018-09-04T00:49:59.317Z,18.97
2018-09-04T00:52:27.094Z,22.90
2018-09-04T00:54:54.773Z,22.33
2018-09-04T00:57:22.498Z,20.97
2018-09-04T00:59:50.233Z,22.93
2018-09-04T01:02:18.036Z,26.40
2018-09-04T01:04:46.893Z,23.20
2018-09-04T01:07:14.908Z,24.63
2018-09-04T01:09:42.621Z,20.40
2018-09-04T01:12:10.398Z,19.37
2018-09-04T01:14:38.086Z,23.20
2018-09-04T01:17:06.034Z,22.13
2018-09-04T01:19:33.756Z,19.73
2018-09-04T01:22:01.566Z,21.53
2018-09-04T01:24:29.315Z,19.97
2018-09-04T01:26:57.080Z,17.47
2018-09-04T01:29:24.848Z,15.93
2018-09-04T01:31:52.540Z,16.50
2018-09-04T01:34:20.351Z,18.57
2018-09-04T01:36:48.163Z,19.07
2018-09-04T01:39:15.854Z,18.23
2018-09-04T01:41:43.586Z,17.03
2018-09-04T01:44:11.354Z,24.87
2018-09-04T01:46:39.334Z,22.90
2018-09-04T01:49:07.114Z,23.17
2018-09-04T01:51:34.857Z,22.70
2018-09-04T01:54:02.578Z,23.87
2018-09-04T01:56:30.379Z,26.63
2018-09-04T01:58:58.140Z,25.63
2018-09-04T02:01:26.008Z,25.80
2018-09-04T02:03:53.803Z,22.40
2018-09-04T02:06:21.530Z,22.87
2018-09-04T02:08:49.274Z,28.57
2018-09-04T02:11:17.011Z,29.93
2018-09-04T02:13:44.684Z,26.70
2018-09-04T02:16:12.441Z,22.87
2018-09-04T02:18:40.215Z,22.57
2018-09-04T02:21:07.947Z,24.53
2018-09-04T02:23:35.656Z,29.90
2018-09-04T02:26:03.450Z,22.43
2018-09-04T02:28:31.193Z,25.57
2018-09-04T02:30:58.987Z,27.30
2018-09-04T02:33:26.769Z,25.20
2018-09-04T02:35:54.493Z,22.77
2018-09-04T02:38:22.118Z,22.73
2018-09-04T02:40:49.911Z,21.83
2018-09-04T02:43:17.666Z,20.73
2018-09-04T02:45:45.362Z,20.77
2018-09-04T02:48:13.126Z,20.23
2018-09-04T02:50:40.828Z,20.50
2018-09-04T02:53:08.610Z,22.90
2018-09-04T02:55:36.404Z,22.17
2018-09-04T02:58:04.193Z,18.37
2018-09-04T03:00:31.921Z,18.80
2018-09-04T03:02:59.665Z,19.83
2018-09-04T03:05:27.386Z,19.10
2018-09-04T03:07:55.186Z,19.67
2018-09-04T03:10:22.991Z,21.30
2018-09-04T03:12:50.803Z,19.70
2018-09-04T03:15:18.501Z,23.23
2018-09-04T03:17:46.267Z,21.33
2018-09-04T03:20:13.910Z,19.23
2018-09-04T03:22:41.675Z,20.20
2018-09-04T03:25:09.455Z,17.93
2018-09-04T03:27:37.191Z,21.33
2018-09-04T03:30:05.030Z,18.50
2018-09-04T03:32:32.820Z,19.93
2018-09-04T03:35:00.606Z,17.03
2018-09-04T03:37:28.338Z,15.43
2018-09-04T03:39:56.075Z,16.20
2018-09-04T03:42:23.893Z,17.80
2018-09-04T03:44:51.691Z,16.27
2018-09-04T03:47:19.469Z,17.07
2018-09-04T03:49:47.161Z,14.93
2018-09-04T03:52:14.936Z,12.83
2018-09-04T03:54:42.802Z,17.57
2018-09-04T03:57:10.567Z,15.90
2018-09-04T03:59:38.291Z,15.53
2018-09-04T04:02:06.371Z,12.70
2018-09-04T04:04:34.075Z,13.03
2018-09-04T04:07:01.751Z,13.50
2018-09-04T04:09:29.554Z,14.13
2018-09-04T04:11:57.311Z,14.30
2018-09-04T04:14:25.078Z,13.13
2018-09-04T04:16:52.969Z,15.63
2018-09-04T04:19:20.729Z,14.60
2018-09-04T04:21:48.495Z,15.83
2018-09-04T04:24:16.283Z,13.63
2018-09-04T04:26:44.055Z,14.03
2018-09-04T04:29:11.884Z,12.70
2018-09-04T04:31:39.707Z,12.10
2018-09-04T04:34:07.439Z,11.67
2018-09-04T04:36:35.166Z,12.83
2018-09-04T04:39:03.283Z,11.80
2018-09-04T04:41:31.014Z,12.77
2018-09-04T04:43:58.835Z,10.20
2018-09-04T04:46:26.588Z,11.37
2018-09-04T04:48:54.286Z,10.33
2018-09-04T04:51:21.997Z,10.27
2018-09-04T04:53:49.753Z,9.80
2018-09-04T04:56:17.469Z,10.20
2018-09-04T04:58:45.176Z,8.43
2018-09-04T05:01:12.962Z,10.53
2018-09-04T05:03:40.704Z,13.90
2018-09-04T05:06:08.406Z,10.50
2018-09-04T05:08:36.211Z,10.90
2018-09-04T05:11:04.018Z,12.60
2018-09-04T05:13:31.657Z,16.87
2018-09-04T05:15:59.445Z,15.73
2018-09-04T05:18:27.154Z,19.40
2018-09-04T05:20:55.005Z,19.23
2018-09-04T05:23:22.859Z,16.20
2018-09-04T05:25:50.638Z,17.97
2018-09-04T05:28:18.362Z,19.60
2018-09-04T05:30:46.126Z,16.17
2018-09-04T05:33:16.634Z,18.93
2018-09-04T05:35:46.739Z,17.80
2018-09-04T05:38:14.458Z,19.80
2018-09-04T05:40:42.449Z,18.20
2018-09-04T05:43:12.697Z,13.27
2018-09-04T05:45:40.953Z,13.87
2018-09-04T05:48:10.621Z,21.10
2018-09-04T05:50:38.500Z,19.10
2018-09-04T05:53:06.392Z,18.90
2018-09-04T05:55:34.053Z,18.47
2018-09-04T05:58:02.263Z,17.57
2018-09-04T06:00:33.383Z,17.83
2018-09-04T06:03:01.202Z,17.23
2018-09-04T06:05:28.914Z,18.67
2018-09-04T06:07:56.654Z,17.90
2018-09-04T06:10:24.341Z,17.40
2018-09-04T06:12:52.043Z,17.03
2018-09-04T06:15:19.805Z,15.20
2018-09-04T06:17:52.870Z,17.07
2018-09-04T06:20:20.612Z,18.73
2018-09-04T06:22:48.381Z,15.73
2018-09-04T06:25:16.203Z,14.23
2018-09-04T06:27:43.944Z,13.30
2018-09-04T06:30:11.709Z,15.43
2018-09-04T06:32:39.433Z,16.23
2018-09-04T06:35:07.214Z,12.87
2018-09-04T06:37:34.998Z,14.27
2018-09-04T06:40:02.876Z,13.50
2018-09-04T06:42:30.604Z,10.53
2018-09-04T06:44:58.339Z,15.37
2018-09-04T06:47:26.058Z,13.83
2018-09-04T06:49:53.921Z,14.13
2018-09-04T06:52:21.617Z,12.70
2018-09-04T06:54:49.373Z,15.20
2018-09-04T06:57:17.144Z,13.07
2018-09-04T06:59:44.821Z,12.27
2018-09-04T07:02:12.622Z,10.33
2018-09-04T07:04:40.330Z,14.23
2018-09-04T07:07:08.376Z,15.70
2018-09-04T07:09:36.148Z,13.07
2018-09-04T07:12:03.910Z,14.80
2018-09-04T07:14:31.788Z,11.73
2018-09-04T07:16:59.660Z,14.13
2018-09-04T07:19:27.427Z,12.23
2018-09-04T07:21:55.149Z,13.40
2018-09-04T07:24:22.907Z,10.93
2018-09-04T07:26:50.679Z,12.03
2018-09-04T07:29:18.488Z,10.30
2018-09-04T07:31:46.356Z,11.37
2018-09-04T07:34:14.045Z,11.93
2018-09-04T07:36:41.784Z,10.73
2018-09-04T07:39:10.722Z,9.67
2018-09-04T07:41:38.894Z,13.00
2018-09-04T07:44:06.939Z,11.47
2018-09-04T07:46:34.781Z,14.03
2018-09-04T07:49:02.680Z,16.03
2018-09-04T07:51:30.575Z,12.00
2018-09-04T07:53:58.416Z,17.20
2018-09-04T07:56:26.229Z,15.20
2018-09-04T07:58:53.973Z,11.63
2018-09-04T08:01:21.896Z,11.03
2018-09-04T08:03:49.772Z,11.23
2018-09-04T08:06:17.526Z,11.60
2018-09-04T08:08:46.270Z,11.57
2018-09-04T08:11:14.131Z,10.43
2018-09-04T08:13:41.985Z,12.27
2018-09-04T08:16:09.851Z,10.57
2018-09-04T08:18:38.017Z,11.60
2018-09-04T08:21:06.069Z,14.40
2018-09-04T08:23:34.754Z,10.30
2018-09-04T08:26:02.477Z,10.40
2018-09-04T08:28:30.199Z,15.50
2018-09-04T08:30:58.024Z,11.93
2018-09-04T08:33:25.824Z,10.30
2018-09-04T08:35:53.713Z,12.93
2018-09-04T08:38:21.474Z,14.27
2018-09-04T08:40:49.198Z,14.63
2018-09-04T08:43:17.116Z,11.43
2018-09-04T08:45:44.816Z,10.33
2018-09-04T08:48:18.024Z,13.43
2018-09-04T08:50:45.946Z,9.90
2018-09-04T08:53:14.090Z,10.87
2018-09-04T08:55:41.779Z,16.73
2018-09-04T08:58:09.666Z,13.13
2018-09-04T09:00:37.505Z,8.90
2018-09-04T09:03:05.491Z,8.73
2018-09-04T09:05:33.430Z,10.47
2018-09-04T09:08:01.212Z,13.83
2018-09-04T09:10:29.057Z,12.87
2018-09-04T09:12:56.848Z,12.40
2018-09-04T09:15:24.629Z,12.10
2018-09-04T09:17:52.428Z,10.10
2018-09-04T09:20:20.232Z,12.83
2018-09-04T09:22:48.035Z,11.97
2018-09-04T09:25:15.706Z,14.23
2018-09-04T09:27:43.620Z,14.20
2018-09-04T09:30:12.100Z,16.27
2018-09-04T09:32:39.814Z,9.00
2018-09-04T09:35:07.615Z,11.67
2018-09-04T09:37:35.422Z,12.20
2018-09-04T09:40:03.405Z,12.20
2018-09-04T09:42:31.278Z,14.03
2018-09-04T09:44:59.018Z,10.70
2018-09-04T09:47:26.846Z,12.10
2018-09-04T09:49:54.589Z,11.73
2018-09-04T09:52:22.354Z,11.07
2018-09-04T09:54:50.086Z,16.27
2018-09-04T09:57:17.934Z,14.03
2018-09-04T09:59:45.739Z,11.53
2018-09-04T10:02:18.269Z,8.27
2018-09-04T10:04:46.105Z,12.43
2018-09-04T10:07:13.796Z,10.57
2018-09-04T10:09:41.702Z,11.83
2018-09-04T10:12:09.567Z,13.93
2018-09-04T10:14:37.426Z,13.50
2018-09-04T10:17:05.317Z,11.27
2018-09-04T10:19:33.154Z,11.97
2018-09-04T10:22:01.140Z,9.73
2018-09-04T10:24:29.015Z,10.67
2018-09-04T10:26:56.915Z,13.13
2018-09-04T10:29:24.854Z,14.33
2018-09-04T10:31:52.608Z,10.43
2018-09-04T10:34:20.341Z,10.67
2018-09-04T10:36:48.137Z,11.90
2018-09-04T10:39:21.605Z,13.77
2018-09-04T10:41:49.290Z,15.07
2018-09-04T10:44:17.059Z,13.87
2018-09-04T10:46:45.286Z,10.70
2018-09-04T10:49:13.027Z,12.87
2018-09-04T10:51:40.730Z,10.10
2018-09-04T10:54:08.573Z,13.60
2018-09-04T10:56:36.362Z,11.53
2018-09-04T10:59:04.095Z,14.43
2018-09-04T11:01:31.834Z,11.47
2018-09-04T11:03:59.614Z,9.40
2018-09-04T11:06:27.285Z,13.80
2018-09-04T11:08:55.030Z,11.53
2018-09-04T11:11:22.715Z,9.20
2018-09-04T11:13:50.415Z,9.50
2018-09-04T11:16:18.175Z,12.43
2018-09-04T11:18:45.865Z,11.10
2018-09-04T11:21:13.646Z,9.07
2018-09-04T11:23:41.402Z,13.63
2018-09-04T11:26:09.037Z,12.00
2018-09-04T11:28:40.323Z,11.23
2018-09-04T11:31:08.038Z,13.37
2018-09-04T11:33:35.781Z,9.43
2018-09-04T11:36:03.453Z,12.23
2018-09-04T11:38:31.181Z,9.07
2018-09-04T11:40:58.915Z,16.17
2018-09-04T11:43:26.647Z,11.60
2018-09-04T11:45:54.362Z,9.33
2018-09-04T11:48:22.051Z,10.00
2018-09-04T11:50:49.724Z,9.90
2018-09-04T11:53:17.439Z,16.27
2018-09-04T11:55:45.260Z,9.87
2018-09-04T11:58:12.922Z,10.67
2018-09-04T12:00:43.713Z,10.70
2018-09-04T12:03:13.056Z,13.30
2018-09-04T12:05:40.975Z,10.83
2018-09-04T12:08:09.018Z,10.37
2018-09-04T12:10:36.964Z,8.53
2018-09-04T12:13:05.144Z,8.33
2018-09-04T12:15:32.997Z,9.17
2018-09-04T12:18:00.810Z,10.27
2018-09-04T12:20:34.686Z,11.23
2018-09-04T12:23:02.468Z,10.33
2018-09-04T12:25:30.364Z,13.10
2018-09-04T12:27:58.106Z,10.03
2018-09-04T12:30:25.816Z,11.73
2018-09-04T12:32:53.540Z,12.07
2018-09-04T12:35:21.488Z,11.80
2018-09-04T12:37:49.278Z,8.90
2018-09-04T12:40:17.087Z,8.63
2018-09-04T12:42:45.297Z,12.27
2018-09-04T12:45:13.074Z,10.37
2018-09-04T12:47:40.838Z,13.33
2018-09-04T12:50:08.642Z,8.30
2018-09-04T12:52:36.329Z,12.07
2018-09-04T12:55:04.249Z,9.27
2018-09-04T12:57:32.185Z,8.77
2018-09-04T12:59:59.988Z,12.93
2018-09-04T13:02:27.741Z,9.17
2018-09-04T13:04:55.469Z,6.70
2018-09-04T13:07:23.183Z,11.20
2018-09-04T13:09:50.887Z,9.67
2018-09-04T13:12:18.622Z,9.30
2018-09-04T13:14:46.414Z,11.97
2018-09-04T13:17:14.093Z,10.13
2018-09-04T13:19:41.918Z,7.73
2018-09-04T13:22:09.669Z,10.63
2018-09-04T13:24:37.383Z,12.50
2018-09-04T13:27:05.117Z,9.17
2018-09-04T13:29:32.811Z,12.33
2018-09-04T13:32:00.632Z,9.60
2018-09-04T13:34:28.424Z,13.30
2018-09-04T13:36:56.133Z,9.07
2018-09-04T13:39:23.826Z,10.00
2018-09-04T13:41:51.539Z,11.50
2018-09-04T13:44:19.268Z,12.53
2018-09-04T13:46:46.950Z,8.03
2018-09-04T13:49:14.694Z,12.57
2018-09-04T13:51:42.399Z,10.37
2018-09-04T13:54:10.176Z,10.97
2018-09-04T13:56:37.884Z,9.90
2018-09-04T13:59:05.698Z,8.20
2018-09-04T14:01:33.432Z,10.37
2018-09-04T14:04:01.423Z,11.77
2018-09-04T14:06:30.061Z,9.43
2018-09-04T14:08:57.836Z,9.13
2018-09-04T14:11:25.534Z,10.97
2018-09-04T14:13:53.213Z,9.37
2018-09-04T14:16:23.059Z,10.67
2018-09-04T14:18:51.013Z,13.77
2018-09-04T14:21:18.723Z,12.10
2018-09-04T14:23:46.491Z,7.90
2018-09-04T14:26:14.236Z,8.83
2018-09-04T14:28:41.969Z,9.87
2018-09-04T14:31:09.702Z,10.10
2018-09-04T14:33:37.501Z,9.13
2018-09-04T14:36:05.286Z,10.40
2018-09-04T14:38:32.917Z,10.57
2018-09-04T14:41:00.710Z,13.00
2018-09-04T14:43:28.459Z,12.70
2018-09-04T14:45:56.199Z,9.40
2018-09-04T14:48:24.841Z,13.23
2018-09-04T14:50:52.890Z,13.83
2018-09-04T14:53:20.614Z,10.57
2018-09-04T14:55:48.366Z,12.33
2018-09-04T14:58:16.290Z,10.67
2018-09-04T15:00:44.018Z,13.20
2018-09-04T15:03:11.787Z,10.07
2018-09-04T15:05:39.494Z,12.07
2018-09-04T15:08:07.165Z,11.03
2018-09-04T15:10:34.921Z,10.03
2018-09-04T15:13:02.691Z,13.07
2018-09-04T15:15:30.471Z,10.93
2018-09-04T15:17:58.239Z,8.80
2018-09-04T15:20:25.953Z,8.50
2018-09-04T15:22:54.424Z,10.47
2018-09-04T15:25:22.275Z,11.27
2018-09-04T15:27:49.964Z,11.03
2018-09-04T15:30:17.725Z,11.73
2018-09-04T15:32:45.606Z,10.80
2018-09-04T15:35:13.327Z,14.07
2018-09-04T15:37:41.050Z,18.13
2018-09-04T15:40:08.822Z,10.67
2018-09-04T15:42:36.609Z,10.73
2018-09-04T15:45:04.453Z,12.23
2018-09-04T15:47:32.194Z,13.37
2018-09-04T15:49:59.868Z,16.93
2018-09-04T15:52:27.561Z,10.97
2018-09-04T15:54:55.394Z,13.43
2018-09-04T15:57:23.116Z,15.87
2018-09-04T15:59:50.798Z,14.63
2018-09-04T16:02:18.513Z,10.77
2018-09-04T16:04:46.241Z,15.67
2018-09-04T16:07:13.945Z,10.53
2018-09-04T16:09:41.693Z,11.97
2018-09-04T16:12:09.418Z,11.97
2018-09-04T16:14:37.125Z,16.57
2018-09-04T16:17:04.907Z,12.33
2018-09-04T16:19:32.632Z,13.03
2018-09-04T16:22:00.510Z,13.20
2018-09-04T16:24:28.274Z,10.33
2018-09-04T16:26:55.958Z,14.53
2018-09-04T16:29:23.700Z,10.87
2018-09-04T16:31:51.448Z,11.77
2018-09-04T16:34:19.237Z,10.87
2018-09-04T16:36:46.901Z,13.73
2018-09-04T16:39:14.669Z,17.27
2018-09-04T16:41:42.420Z,12.40
2018-09-04T16:44:10.134Z,12.20
2018-09-04T16:46:37.901Z,11.40
2018-09-04T16:49:05.653Z,11.53
2018-09-04T16:51:33.338Z,13.93
2018-09-04T16:54:01.059Z,14.23
2018-09-04T16:56:28.790Z,15.60
2018-09-04T16:58:56.513Z,14.13
2018-09-04T17:01:24.386Z,12.70
2018-09-04T17:03:52.089Z,10.77
2018-09-04T17:06:19.809Z,11.87
2018-09-04T17:08:47.664Z,15.40
2018-09-04T17:11:15.425Z,14.47
2018-09-04T17:13:43.112Z,14.73
2018-09-04T17:16:10.865Z,13.30
2018-09-04T17:18:38.575Z,12.00
2018-09-04T17:21:06.337Z,10.30
2018-09-04T17:23:34.100Z,16.70
2018-09-04T17:26:01.906Z,15.20
2018-09-04T17:28:29.627Z,11.60
2018-09-04T17:30:57.528Z,15.40
2018-09-04T17:33:25.222Z,15.07
2018-09-04T17:35:53.064Z,9.27
2018-09-04T17:38:20.847Z,8.70
2018-09-04T17:40:48.525Z,12.67
2018-09-04T17:43:16.223Z,12.60
2018-09-04T17:45:44.041Z,16.30
2018-09-04T17:48:11.849Z,11.40
2018-09-04T17:50:39.557Z,10.60
2018-09-04T17:53:07.328Z,10.40
2018-09-04T17:55:35.010Z,12.73
2018-09-04T17:58:02.719Z,8.97
2018-09-04T18:00:30.481Z,11.17
2018-09-04T18:02:58.309Z,10.53
2018-09-04T18:05:26.029Z,10.47
2018-09-04T18:07:53.777Z,13.10
2018-09-04T18:10:21.517Z,11.13
2018-09-04T18:12:49.210Z,11.63
2018-09-04T18:15:16.925Z,13.60
2018-09-04T18:17:44.616Z,14.03
2018-09-04T18:20:12.334Z,13.37
2018-09-04T18:22:40.327Z,10.30
2018-09-04T18:25:08.100Z,10.00
2018-09-04T18:27:35.837Z,9.13
2018-09-04T18:30:03.688Z,11.67
2018-09-04T18:32:31.383Z,8.80
2018-09-04T18:34:59.156Z,9.97
2018-09-04T18:37:26.907Z,7.40
2018-09-04T18:39:54.976Z,8.43
2018-09-04T18:42:23.008Z,8.97
2018-09-04T18:44:50.784Z,12.40
2018-09-04T18:47:18.488Z,10.47
2018-09-04T18:49:46.201Z,8.67
2018-09-04T18:52:13.894Z,13.37
2018-09-04T18:54:41.649Z,9.23
2018-09-04T18:57:09.417Z,10.63
2018-09-04T18:59:37.247Z,10.97
2018-09-04T19:02:05.050Z,7.93
2018-09-04T19:04:32.801Z,9.37
2018-09-04T19:07:00.774Z,10.57
2018-09-04T19:09:28.476Z,8.63
2018-09-04T19:11:56.180Z,11.00
2018-09-04T19:14:23.942Z,11.20
2018-09-04T19:16:51.680Z,11.53
2018-09-04T19:19:19.369Z,11.33
2018-09-04T19:21:47.109Z,9.97
2018-09-04T19:24:15.611Z,12.20
2018-09-04T19:26:43.341Z,10.37
2018-09-04T19:29:11.116Z,7.53
2018-09-04T19:31:38.805Z,11.17
2018-09-04T19:34:06.504Z,10.97
2018-09-04T19:36:34.241Z,12.10
2018-09-04T19:39:01.954Z,10.70
2018-09-04T19:41:29.633Z,9.37
2018-09-04T19:43:57.360Z,12.00
2018-09-04T19:46:25.017Z,8.13
2018-09-04T19:48:52.728Z,7.97
2018-09-04T19:51:20.463Z,9.20
2018-09-04T19:53:48.148Z,10.30
2018-09-04T19:56:15.950Z,8.53
2018-09-04T19:58:43.707Z,9.53
2018-09-04T20:01:11.518Z,8.60
2018-09-04T20:03:39.225Z,12.47
2018-09-04T20:06:06.981Z,8.83
2018-09-04T20:08:34.669Z,11.27
2018-09-04T20:11:02.374Z,11.10
2018-09-04T20:13:30.149Z,10.30
2018-09-04T20:15:57.891Z,11.10
2018-09-04T20:18:25.596Z,10.77
2018-09-04T20:20:53.324Z,11.00
2018-09-04T20:23:21.017Z,11.70
2018-09-04T20:25:48.728Z,13.27
2018-09-04T20:28:16.408Z,10.50
2018-09-04T20:30:44.218Z,15.07
2018-09-04T20:33:11.948Z,13.10
2018-09-04T20:35:39.689Z,10.30
2018-09-04T20:38:07.431Z,11.27
2018-09-04T20:40:35.220Z,8.27
2018-09-04T20:43:02.935Z,10.90
2018-09-04T20:45:30.671Z,8.47
2018-09-04T20:47:58.415Z,10.03
2018-09-04T20:50:26.315Z,10.37
2018-09-04T20:52:54.405Z,10.57
2018-09-04T20:55:22.118Z,11.27
2018-09-04T20:58:00.949Z,11.90
2018-09-04T21:00:39.941Z,10.03
2018-09-04T21:03:18.941Z,9.33
2018-09-04T21:05:57.982Z,8.67
2018-09-04T21:08:43.528Z,11.30
2018-09-04T21:11:11.325Z,12.77
2018-09-04T21:13:39.083Z,11.63
2018-09-04T21:16:06.895Z,11.00
2018-09-04T21:18:34.684Z,8.60
2018-09-04T21:21:02.464Z,12.20
2018-09-04T21:23:30.327Z,8.97
2018-09-04T21:25:58.192Z,11.10
2018-09-04T21:28:25.972Z,10.83
2018-09-04T21:30:53.819Z,10.87
2018-09-04T21:38:50.365Z,9.17
2018-09-04T21:41:18.229Z,11.37
2018-09-04T21:43:45.902Z,10.17
2018-09-04T21:46:13.646Z,9.93
2018-09-04T21:48:41.494Z,8.73
2018-09-04T21:51:09.231Z,13.03
2018-09-04T21:53:37.074Z,9.30
2018-09-04T21:56:04.841Z,10.70
2018-09-04T21:58:32.517Z,12.33
2018-09-04T22:01:00.390Z,11.97
2018-09-04T22:03:28.200Z,8.80
2018-09-04T22:05:56.063Z,10.17
2018-09-04T22:08:23.882Z,9.10
2018-09-04T22:10:51.599Z,8.87
2018-09-04T22:13:19.395Z,9.73
2018-09-04T22:15:47.262Z,8.97
2018-09-04T22:18:14.977Z,9.93
2018-09-04T22:20:42.653Z,10.23
2018-09-04T22:23:10.399Z,10.10
2018-09-04T22:25:38.130Z,10.40
2018-09-04T22:28:05.948Z,8.60
2018-09-04T22:30:33.823Z,11.33
2018-09-04T22:33:01.573Z,11.50
2018-09-04T22:35:29.347Z,9.23
2018-09-04T22:37:57.089Z,10.13
2018-09-04T22:40:24.821Z,9.33
2018-09-04T22:42:52.566Z,9.27
2018-09-04T22:45:20.418Z,9.67
2018-09-04T22:47:48.180Z,8.53
2018-09-04T22:50:21.393Z,11.10
2018-09-04T22:52:49.119Z,9.87
2018-09-04T22:55:16.850Z,9.47
2018-09-04T22:57:44.730Z,8.37
2018-09-04T23:00:13.632Z,11.73
2018-09-04T23:02:41.340Z,8.50
2018-09-04T23:05:09.130Z,8.07
2018-09-04T23:07:36.859Z,10.90
2018-09-04T23:10:04.859Z,12.27
2018-09-04T23:12:32.634Z,10.73
2018-09-04T23:15:00.386Z,9.53
2018-09-04T23:17:28.205Z,7.67
2018-09-04T23:19:56.150Z,7.67
2018-09-04T23:22:23.930Z,10.03
2018-09-04T23:24:51.659Z,9.87
2018-09-04T23:27:19.439Z,9.80
2018-09-04T23:29:47.226Z,10.93
2018-09-04T23:32:14.933Z,8.90
2018-09-04T23:34:42.720Z,9.50
2018-09-04T23:37:10.543Z,8.47
2018-09-04T23:39:38.265Z,9.27
2018-09-04T23:42:06.058Z,9.77
2018-09-04T23:44:33.822Z,9.37
2018-09-04T23:47:01.883Z,9.37
2018-09-04T23:49:29.762Z,8.87
2018-09-04T23:51:57.610Z,9.30
2018-09-04T23:54:25.814Z,7.93
2018-09-04T23:56:53.726Z,8.73
2018-09-04T23:59:21.489Z,10.17
